Time,TemperatureF,DewpointF,PressureIn,WindDirection,WindDirectionDegrees,WindSpeedMPH,WindSpeedGustMPH,Humidity,HourlyPrecipIn,Conditions,Clouds,dailyrainin,SoftwareType,DateUTC
2013-11-30 00:03:00,47.7,43.0,30.20,SW,231,0.0,-999.0,84,-99.99,,,0.00,weatherlink.com 1.10,2013-11-30 08:03:00,
2013-11-30 00:18:00,47.7,43.0,30.20,SW,231,0.0,-999.0,85,-99.99,,,0.00,weatherlink.com 1.10,2013-11-30 08:18:00,
2013-11-30 00:33:00,47.4,43.0,30.20,SW,231,0.0,-999.0,86,-99.99,,,0.00,weatherlink.com 1.10,2013-11-30 08:33:00,
2013-11-30 00:48:00,47.4,43.0,30.20,SW,231,0.0,-999.0,86,-99.99,,,0.00,weatherlink.com 1.10,2013-11-30 08:48:00,
2013-11-30 01:03:00,47.3,44.0,30.20,SW,231,0.0,-999.0,87,-99.99,,,0.00,weatherlink.com 1.10,2013-11-30 09:03:00,
2013-11-30 01:18:00,47.3,44.0,30.20,SW,231,0.0,-999.0,88,-99.99,,,0.00,weatherlink.com 1.10,2013-11-30 09:18:00,
2013-11-30 01:33:00,47.4,44.0,30.20,SW,231,0.0,-999.0,89,-99.99,,,0.00,weatherlink.com 1.10,2013-11-30 09:33:00,
2013-11-30 01:48:00,47.7,45.0,30.20,SW,231,0.0,-999.0,90,-99.99,,,0.00,weatherlink.com 1.10,2013-11-30 09:48:00,
2013-11-30 02:03:00,47.7,45.0,30.21,SW,231,0.0,-999.0,91,-99.99,,,0.00,weatherlink.com 1.10,2013-11-30 10:03:00,
2013-11-30 02:18:00,48.6,46.0,30.21,SW,231,0.0,-999.0,92,-99.99,,,0.00,weatherlink.com 1.10,2013-11-30 10:18:00,
2013-11-30 02:33:00,49.6,48.0,30.21,SW,231,0.0,-999.0,93,-99.99,,,0.00,weatherlink.com 1.10,2013-11-30 10:33:00,
2013-11-30 02:48:00,49.8,48.0,30.21,SW,231,0.0,-999.0,93,-99.99,,,0.00,weatherlink.com 1.10,2013-11-30 10:48:00,
2013-11-30 03:03:00,49.8,48.0,30.21,SW,231,0.0,-999.0,93,-99.99,,,0.00,weatherlink.com 1.10,2013-11-30 11:03:00,
2013-11-30 03:18:00,49.2,47.0,30.21,SW,231,0.0,-999.0,93,-99.99,,,0.00,weatherlink.com 1.10,2013-11-30 11:18:00,
2013-11-30 03:33:00,48.9,47.0,30.21,SW,231,0.0,-999.0,94,-99.99,,,0.00,weatherlink.com 1.10,2013-11-30 11:33:00,
2013-11-30 03:48:00,49.1,48.0,30.22,SW,231,0.0,-999.0,94,-99.99,,,0.00,weatherlink.com 1.10,2013-11-30 11:48:00,
2013-11-30 04:03:00,48.9,47.0,30.22,SW,231,0.0,-999.0,94,-99.99,,,0.00,weatherlink.com 1.10,2013-11-30 12:03:00,
2013-11-30 04:18:00,48.3,47.0,30.22,SW,231,0.0,-999.0,94,-99.99,,,0.00,weatherlink.com 1.10,2013-11-30 12:18:00,
2013-11-30 04:33:00,48.3,47.0,30.21,SW,231,0.0,-999.0,95,-99.99,,,0.00,weatherlink.com 1.10,2013-11-30 12:33:00,
2013-11-30 04:48:00,48.0,46.0,30.22,SW,231,0.0,-999.0,94,-99.99,,,0.00,weatherlink.com 1.10,2013-11-30 12:48:00,
2013-11-30 05:03:00,48.0,47.0,30.23,SW,231,0.0,-999.0,95,-99.99,,,0.00,weatherlink.com 1.10,2013-11-30 13:03:00,
2013-11-30 05:18:00,47.6,46.0,30.22,SW,231,0.0,-999.0,94,-99.99,,,0.00,weatherlink.com 1.10,2013-11-30 13:18:00,
2013-11-30 05:33:00,46.8,45.0,30.22,SW,231,0.0,-999.0,94,-99.99,,,0.00,weatherlink.com 1.10,2013-11-30 13:33:00,
2013-11-30 05:48:00,46.1,45.0,30.21,SW,231,0.0,-999.0,94,-99.99,,,0.00,weatherlink.com 1.10,2013-11-30 13:48:00,
2013-11-30 06:03:00,45.7,44.0,30.22,SW,231,0.0,-999.0,94,-99.99,,,0.00,weatherlink.com 1.10,2013-11-30 14:03:00,
2013-11-30 06:18:00,45.4,44.0,30.22,SW,231,0.0,-999.0,94,-99.99,,,0.00,weatherlink.com 1.10,2013-11-30 14:18:00,
2013-11-30 06:33:00,45.1,44.0,30.23,SW,231,0.0,-999.0,94,-99.99,,,0.00,weatherlink.com 1.10,2013-11-30 14:33:00,
2013-11-30 06:48:00,44.9,44.0,30.23,SW,231,0.0,-999.0,95,-99.99,,,0.00,weatherlink.com 1.10,2013-11-30 14:48:00,
2013-11-30 07:03:00,44.9,44.0,30.23,SW,231,0.0,-999.0,95,-99.99,,,0.00,weatherlink.com 1.10,2013-11-30 15:03:00,
2013-11-30 07:18:00,45.2,44.0,30.23,SW,231,0.0,-999.0,95,-99.99,,,0.00,weatherlink.com 1.10,2013-11-30 15:18:00,
2013-11-30 07:33:00,45.8,45.0,30.23,SW,231,0.0,-999.0,95,-99.99,,,0.00,weatherlink.com 1.10,2013-11-30 15:33:00,
2013-11-30 07:48:00,46.1,45.0,30.23,SW,231,0.0,-999.0,95,-99.99,,,0.00,weatherlink.com 1.10,2013-11-30 15:48:00,
2013-11-30 08:03:00,46.4,45.0,30.25,SW,231,0.0,-999.0,95,-99.99,,,0.00,weatherlink.com 1.10,2013-11-30 16:03:00,
2013-11-30 08:18:00,47.1,46.0,30.24,SW,231,0.0,-999.0,95,-99.99,,,0.00,weatherlink.com 1.10,2013-11-30 16:18:00,
2013-11-30 08:33:00,48.2,47.0,30.24,SW,231,0.0,-999.0,96,-99.99,,,0.00,weatherlink.com 1.10,2013-11-30 16:33:00,
2013-11-30 08:48:00,49.2,48.0,30.25,SW,231,0.0,-999.0,96,-99.99,,,0.00,weatherlink.com 1.10,2013-11-30 16:48:00,
2013-11-30 09:03:00,50.1,49.0,30.25,SW,231,0.0,-999.0,96,-99.99,,,0.00,weatherlink.com 1.10,2013-11-30 17:03:00,
2013-11-30 09:18:00,50.5,49.0,30.25,SW,231,0.0,-999.0,96,-99.99,,,0.00,weatherlink.com 1.10,2013-11-30 17:18:00,
2013-11-30 09:33:00,50.8,50.0,30.25,SW,231,0.0,-999.0,96,-99.99,,,0.00,weatherlink.com 1.10,2013-11-30 17:33:00,
2013-11-30 09:48:00,51.4,50.0,30.26,SW,231,0.0,-999.0,96,-99.99,,,0.00,weatherlink.com 1.10,2013-11-30 17:48:00,
2013-11-30 10:03:00,53.2,52.0,30.25,SW,230,0.0,-999.0,95,-99.99,,,0.00,weatherlink.com 1.10,2013-11-30 18:03:00,
2013-11-30 10:18:00,55.3,53.0,30.25,SW,230,0.0,-999.0,90,-99.99,,,0.00,weatherlink.com 1.10,2013-11-30 18:18:00,
2013-11-30 10:33:00,56.7,51.0,30.26,North,349,0.0,-999.0,80,-99.99,,,0.00,weatherlink.com 1.10,2013-11-30 18:33:00,
2013-11-30 10:48:00,58.7,50.0,30.25,SSW,198,0.0,-999.0,73,-99.99,,,0.00,weatherlink.com 1.10,2013-11-30 18:48:00,
2013-11-30 11:04:00,60.4,49.0,30.25,NW,326,0.0,-999.0,67,-99.99,,,0.00,weatherlink.com 1.10,2013-11-30 19:04:00,
2013-11-30 11:19:00,61.5,49.0,30.25,WNW,292,1.0,-999.0,64,-99.99,,,0.00,weatherlink.com 1.10,2013-11-30 19:19:00,
2013-11-30 11:34:00,62.6,49.0,30.24,WNW,290,0.0,-999.0,61,-99.99,,,0.00,weatherlink.com 1.10,2013-11-30 19:34:00,
2013-11-30 11:49:00,63.9,50.0,30.23,West,271,1.0,-999.0,60,-99.99,,,0.00,weatherlink.com 1.10,2013-11-30 19:49:00,
2013-11-30 12:04:00,64.3,49.0,30.23,South,178,0.0,-999.0,59,-99.99,,,0.00,weatherlink.com 1.10,2013-11-30 20:04:00,
2013-11-30 12:19:00,64.7,49.0,30.23,SSW,194,0.0,-999.0,57,-99.99,,,0.00,weatherlink.com 1.10,2013-11-30 20:19:00,
2013-11-30 12:35:00,65.6,49.0,30.23,WSW,254,0.0,-999.0,55,-99.99,,,0.00,weatherlink.com 1.10,2013-11-30 20:35:00,
2013-11-30 12:49:00,66.3,49.0,30.22,West,274,0.0,-999.0,54,-99.99,,,0.00,weatherlink.com 1.10,2013-11-30 20:49:00,
2013-11-30 13:04:00,67.3,48.0,30.21,SSW,208,1.0,-999.0,51,-99.99,,,0.00,weatherlink.com 1.10,2013-11-30 21:04:00,
2013-11-30 13:19:00,66.6,48.0,30.20,SW,228,1.0,-999.0,51,-99.99,,,0.00,weatherlink.com 1.10,2013-11-30 21:19:00,
2013-11-30 13:34:00,65.8,49.0,30.20,SW,227,0.0,-999.0,56,-99.99,,,0.00,weatherlink.com 1.10,2013-11-30 21:34:00,
2013-11-30 13:49:00,64.3,49.0,30.19,SW,233,0.0,-999.0,58,-99.99,,,0.00,weatherlink.com 1.10,2013-11-30 21:49:00,
2013-11-30 14:05:00,64.7,49.0,30.19,SW,233,0.0,-999.0,57,-99.99,,,0.00,weatherlink.com 1.10,2013-11-30 22:05:00,
2013-11-30 14:19:00,65.6,49.0,30.18,SW,233,1.0,-999.0,55,-99.99,,,0.00,weatherlink.com 1.10,2013-11-30 22:19:00,
2013-11-30 14:34:00,65.3,49.0,30.18,SW,232,1.0,-999.0,55,-99.99,,,0.00,weatherlink.com 1.10,2013-11-30 22:34:00,
2013-11-30 14:49:00,65.2,48.0,30.18,SW,232,0.0,-999.0,54,-99.99,,,0.00,weatherlink.com 1.10,2013-11-30 22:49:00,
2013-11-30 15:05:00,65.5,48.0,30.18,SW,232,0.0,-999.0,53,-99.99,,,0.00,weatherlink.com 1.10,2013-11-30 23:05:00,
2013-11-30 15:19:00,65.2,46.0,30.18,SW,232,0.0,-999.0,50,-99.99,,,0.00,weatherlink.com 1.10,2013-11-30 23:19:00,
2013-11-30 15:34:00,63.9,46.0,30.18,SW,232,0.0,-999.0,52,-99.99,,,0.00,weatherlink.com 1.10,2013-11-30 23:34:00,
2013-11-30 15:49:00,62.7,46.0,30.18,SW,232,0.0,-999.0,54,-99.99,,,0.00,weatherlink.com 1.10,2013-11-30 23:49:00,
2013-11-30 16:04:00,62.1,46.0,30.18,SW,232,0.0,-999.0,57,-99.99,,,0.00,weatherlink.com 1.10,2013-12-01 00:04:00,
2013-11-30 16:20:00,61.2,47.0,30.19,SW,232,0.0,-999.0,59,-99.99,,,0.00,weatherlink.com 1.10,2013-12-01 00:20:00,
2013-11-30 16:34:00,60.4,47.0,30.19,SW,232,0.0,-999.0,62,-99.99,,,0.00,weatherlink.com 1.10,2013-12-01 00:34:00,
2013-11-30 16:49:00,59.2,48.0,30.19,SW,232,0.0,-999.0,67,-99.99,,,0.00,weatherlink.com 1.10,2013-12-01 00:49:00,
2013-11-30 17:05:00,57.5,48.0,30.20,SW,232,0.0,-999.0,71,-99.99,,,0.00,weatherlink.com 1.10,2013-12-01 01:05:00,
2013-11-30 17:20:00,55.9,48.0,30.20,SW,232,0.0,-999.0,74,-99.99,,,0.00,weatherlink.com 1.10,2013-12-01 01:20:00,
2013-11-30 17:35:00,54.5,47.0,30.20,SW,232,0.0,-999.0,76,-99.99,,,0.00,weatherlink.com 1.10,2013-12-01 01:35:00,
2013-11-30 17:50:00,53.3,48.0,30.20,SW,232,0.0,-999.0,82,-99.99,,,0.00,weatherlink.com 1.10,2013-12-01 01:50:00,
2013-11-30 18:05:00,52.5,47.0,30.21,SW,232,0.0,-999.0,82,-99.99,,,0.00,weatherlink.com 1.10,2013-12-01 02:05:00,
2013-11-30 18:20:00,51.7,47.0,30.21,SW,233,0.0,-999.0,84,-99.99,,,0.00,weatherlink.com 1.10,2013-12-01 02:20:00,
2013-11-30 18:36:00,51.3,47.0,30.21,SW,233,0.0,-999.0,86,-99.99,,,0.00,weatherlink.com 1.10,2013-12-01 02:36:00,
2013-11-30 18:51:00,50.8,47.0,30.21,SW,233,0.0,-999.0,87,-99.99,,,0.00,weatherlink.com 1.10,2013-12-01 02:51:00,
2013-11-30 19:05:00,50.5,47.0,30.22,SW,233,0.0,-999.0,87,-99.99,,,0.00,weatherlink.com 1.10,2013-12-01 03:05:00,
2013-11-30 19:20:00,50.2,47.0,30.22,SW,233,0.0,-999.0,88,-99.99,,,0.00,weatherlink.com 1.10,2013-12-01 03:20:00,
2013-11-30 19:36:00,49.8,46.0,30.23,SW,233,0.0,-999.0,88,-99.99,,,0.00,weatherlink.com 1.10,2013-12-01 03:36:00,
2013-11-30 19:51:00,49.6,47.0,30.23,SW,233,0.0,-999.0,89,-99.99,,,0.00,weatherlink.com 1.10,2013-12-01 03:51:00,
2013-11-30 20:05:00,49.1,46.0,30.22,SW,233,0.0,-999.0,89,-99.99,,,0.00,weatherlink.com 1.10,2013-12-01 04:05:00,
2013-11-30 20:20:00,48.9,46.0,30.23,SW,233,0.0,-999.0,89,-99.99,,,0.00,weatherlink.com 1.10,2013-12-01 04:20:00,
2013-11-30 20:35:00,48.6,46.0,30.23,SW,233,0.0,-999.0,89,-99.99,,,0.00,weatherlink.com 1.10,2013-12-01 04:35:00,
2013-11-30 20:50:00,48.2,45.0,30.23,SW,233,0.0,-999.0,89,-99.99,,,0.00,weatherlink.com 1.10,2013-12-01 04:50:00,
2013-11-30 21:06:00,47.9,45.0,30.23,SW,233,0.0,-999.0,89,-99.99,,,0.00,weatherlink.com 1.10,2013-12-01 05:06:00,
2013-11-30 21:21:00,47.9,45.0,30.23,SW,233,0.0,-999.0,90,-99.99,,,0.00,weatherlink.com 1.10,2013-12-01 05:21:00,
2013-11-30 21:36:00,47.9,45.0,30.23,SW,233,0.0,-999.0,90,-99.99,,,0.00,weatherlink.com 1.10,2013-12-01 05:36:00,
2013-11-30 21:51:00,47.6,45.0,30.23,SW,233,0.0,-999.0,90,-99.99,,,0.00,weatherlink.com 1.10,2013-12-01 05:51:00,
2013-11-30 22:06:00,47.4,45.0,30.22,SW,233,0.0,-999.0,90,-99.99,,,0.00,weatherlink.com 1.10,2013-12-01 06:06:00,
2013-11-30 22:21:00,47.0,44.0,30.23,SW,233,0.0,-999.0,90,-99.99,,,0.00,weatherlink.com 1.10,2013-12-01 06:21:00,
2013-11-30 22:36:00,47.1,44.0,30.23,SW,233,0.0,-999.0,90,-99.99,,,0.00,weatherlink.com 1.10,2013-12-01 06:36:00,
2013-11-30 22:51:00,47.1,45.0,30.23,SW,233,0.0,-999.0,91,-99.99,,,0.00,weatherlink.com 1.10,2013-12-01 06:51:00,
2013-11-30 23:06:00,46.8,44.0,30.24,SW,233,0.0,-999.0,91,-99.99,,,0.00,weatherlink.com 1.10,2013-12-01 07:06:00,
2013-11-30 23:21:00,46.8,44.0,30.25,SW,233,0.0,-999.0,91,-99.99,,,0.00,weatherlink.com 1.10,2013-12-01 07:21:00,
2013-11-30 23:36:00,46.5,44.0,30.25,SW,233,0.0,-999.0,91,-99.99,,,0.00,weatherlink.com 1.10,2013-12-01 07:36:00,
2013-11-30 23:51:00,46.1,44.0,30.25,SW,233,0.0,-999.0,91,-99.99,,,0.00,weatherlink.com 1.10,2013-12-01 07:51:00,